sensor_id;sensor_type;location;lat;lon;timestamp;temperature;humidity
10447;DHT22;70909;45.768;4.884;2023-06-24T00:01:42;23.00;85.40
10447;DHT22;70909;45.768;4.884;2023-06-24T00:04:08;23.00;85.50
10447;DHT22;70909;45.768;4.884;2023-06-24T00:06:35;23.00;85.60
10447;DHT22;70909;45.768;4.884;2023-06-24T00:09:02;22.90;85.70
10447;DHT22;70909;45.768;4.884;2023-06-24T00:11:29;22.90;86.60
10447;DHT22;70909;45.768;4.884;2023-06-24T00:13:58;22.90;85.70
10447;DHT22;70909;45.768;4.884;2023-06-24T00:16:25;22.90;86.10
10447;DHT22;70909;45.768;4.884;2023-06-24T00:18:54;22.90;86.10
10447;DHT22;70909;45.768;4.884;2023-06-24T00:21:23;22.90;85.70
10447;DHT22;70909;45.768;4.884;2023-06-24T00:23:55;22.90;86.20
10447;DHT22;70909;45.768;4.884;2023-06-24T00:26:22;22.80;86.40
10447;DHT22;70909;45.768;4.884;2023-06-24T00:28:49;22.80;86.60
10447;DHT22;70909;45.768;4.884;2023-06-24T00:31:17;22.70;86.80
10447;DHT22;70909;45.768;4.884;2023-06-24T00:33:44;22.70;86.90
10447;DHT22;70909;45.768;4.884;2023-06-24T00:36:11;22.60;87.30
10447;DHT22;70909;45.768;4.884;2023-06-24T00:38:38;22.60;87.30
10447;DHT22;70909;45.768;4.884;2023-06-24T00:41:06;22.60;87.40
10447;DHT22;70909;45.768;4.884;2023-06-24T00:43:33;22.60;87.50
10447;DHT22;70909;45.768;4.884;2023-06-24T00:46:01;22.60;87.60
10447;DHT22;70909;45.768;4.884;2023-06-24T00:48:29;22.60;87.40
10447;DHT22;70909;45.768;4.884;2023-06-24T00:50:57;22.60;87.60
10447;DHT22;70909;45.768;4.884;2023-06-24T00:53:24;22.60;87.60
10447;DHT22;70909;45.768;4.884;2023-06-24T00:55:51;22.50;87.90
10447;DHT22;70909;45.768;4.884;2023-06-24T00:58:20;22.50;87.70
10447;DHT22;70909;45.768;4.884;2023-06-24T01:00:47;22.50;88.00
10447;DHT22;70909;45.768;4.884;2023-06-24T01:03:23;22.40;88.10
10447;DHT22;70909;45.768;4.884;2023-06-24T01:05:52;22.40;87.80
10447;DHT22;70909;45.768;4.884;2023-06-24T01:08:20;22.40;87.70
10447;DHT22;70909;45.768;4.884;2023-06-24T01:10:48;22.40;87.90
10447;DHT22;70909;45.768;4.884;2023-06-24T01:13:15;22.30;88.10
10447;DHT22;70909;45.768;4.884;2023-06-24T01:15:42;22.20;88.20
10447;DHT22;70909;45.768;4.884;2023-06-24T01:18:13;22.20;88.30
10447;DHT22;70909;45.768;4.884;2023-06-24T01:20:47;22.20;88.40
10447;DHT22;70909;45.768;4.884;2023-06-24T01:23:43;22.20;88.50
10447;DHT22;70909;45.768;4.884;2023-06-24T01:26:35;22.10;88.70
10447;DHT22;70909;45.768;4.884;2023-06-24T01:29:35;22.10;89.00
10447;DHT22;70909;45.768;4.884;2023-06-24T01:32:07;22.00;88.90
10447;DHT22;70909;45.768;4.884;2023-06-24T01:34:39;22.10;89.00
10447;DHT22;70909;45.768;4.884;2023-06-24T01:37:14;22.10;88.90
10447;DHT22;70909;45.768;4.884;2023-06-24T01:39:46;22.10;88.80
10447;DHT22;70909;45.768;4.884;2023-06-24T01:42:16;22.00;88.80
10447;DHT22;70909;45.768;4.884;2023-06-24T01:44:44;22.00;88.90
10447;DHT22;70909;45.768;4.884;2023-06-24T01:47:15;22.00;89.10
10447;DHT22;70909;45.768;4.884;2023-06-24T01:49:45;21.90;89.30
10447;DHT22;70909;45.768;4.884;2023-06-24T01:52:13;21.90;89.10
10447;DHT22;70909;45.768;4.884;2023-06-24T01:54:41;22.00;89.90
10447;DHT22;70909;45.768;4.884;2023-06-24T01:57:10;21.90;89.10
10447;DHT22;70909;45.768;4.884;2023-06-24T01:59:40;21.90;89.30
10447;DHT22;70909;45.768;4.884;2023-06-24T02:02:07;21.90;89.60
10447;DHT22;70909;45.768;4.884;2023-06-24T02:04:36;21.90;89.60
10447;DHT22;70909;45.768;4.884;2023-06-24T02:07:06;21.80;90.00
10447;DHT22;70909;45.768;4.884;2023-06-24T02:09:33;21.70;90.00
10447;DHT22;70909;45.768;4.884;2023-06-24T02:12:01;21.70;90.10
10447;DHT22;70909;45.768;4.884;2023-06-24T02:14:29;21.70;90.10
10447;DHT22;70909;45.768;4.884;2023-06-24T02:16:59;21.60;90.30
10447;DHT22;70909;45.768;4.884;2023-06-24T02:19:30;21.50;90.30
10447;DHT22;70909;45.768;4.884;2023-06-24T02:21:59;21.50;90.30
10447;DHT22;70909;45.768;4.884;2023-06-24T02:24:27;21.50;90.40
10447;DHT22;70909;45.768;4.884;2023-06-24T02:26:56;21.50;90.50
10447;DHT22;70909;45.768;4.884;2023-06-24T02:29:25;21.50;90.50
10447;DHT22;70909;45.768;4.884;2023-06-24T02:31:53;21.50;90.50
10447;DHT22;70909;45.768;4.884;2023-06-24T02:34:20;21.40;90.50
10447;DHT22;70909;45.768;4.884;2023-06-24T02:36:47;21.40;90.50
10447;DHT22;70909;45.768;4.884;2023-06-24T02:39:15;21.40;90.40
10447;DHT22;70909;45.768;4.884;2023-06-24T02:41:42;21.40;90.40
10447;DHT22;70909;45.768;4.884;2023-06-24T02:44:10;21.30;90.50
10447;DHT22;70909;45.768;4.884;2023-06-24T02:46:37;21.30;90.50
10447;DHT22;70909;45.768;4.884;2023-06-24T02:49:05;21.30;90.60
10447;DHT22;70909;45.768;4.884;2023-06-24T02:51:32;21.20;90.70
10447;DHT22;70909;45.768;4.884;2023-06-24T02:53:59;21.20;90.80
10447;DHT22;70909;45.768;4.884;2023-06-24T02:56:28;21.10;90.90
10447;DHT22;70909;45.768;4.884;2023-06-24T02:58:55;21.10;90.90
10447;DHT22;70909;45.768;4.884;2023-06-24T03:01:22;21.10;91.00
10447;DHT22;70909;45.768;4.884;2023-06-24T03:03:52;21.00;91.10
10447;DHT22;70909;45.768;4.884;2023-06-24T03:06:20;21.00;91.10
10447;DHT22;70909;45.768;4.884;2023-06-24T03:08:48;21.00;91.10
10447;DHT22;70909;45.768;4.884;2023-06-24T03:11:15;21.00;91.20
10447;DHT22;70909;45.768;4.884;2023-06-24T03:13:43;20.90;91.20
10447;DHT22;70909;45.768;4.884;2023-06-24T03:16:11;20.90;91.30
10447;DHT22;70909;45.768;4.884;2023-06-24T03:18:40;20.80;91.60
10447;DHT22;70909;45.768;4.884;2023-06-24T03:21:07;20.70;91.40
10447;DHT22;70909;45.768;4.884;2023-06-24T03:23:34;20.70;91.60
10447;DHT22;70909;45.768;4.884;2023-06-24T03:26:01;20.70;91.60
10447;DHT22;70909;45.768;4.884;2023-06-24T03:28:28;20.70;91.50
10447;DHT22;70909;45.768;4.884;2023-06-24T03:30:57;20.70;91.60
10447;DHT22;70909;45.768;4.884;2023-06-24T03:33:23;20.70;91.60
10447;DHT22;70909;45.768;4.884;2023-06-24T03:35:52;20.70;91.60
10447;DHT22;70909;45.768;4.884;2023-06-24T03:38:19;20.70;91.50
10447;DHT22;70909;45.768;4.884;2023-06-24T03:40:46;20.70;91.60
10447;DHT22;70909;45.768;4.884;2023-06-24T03:43:13;20.70;91.50
10447;DHT22;70909;45.768;4.884;2023-06-24T03:45:40;20.70;91.50
10447;DHT22;70909;45.768;4.884;2023-06-24T03:48:08;20.70;91.50
10447;DHT22;70909;45.768;4.884;2023-06-24T03:50:35;20.60;91.60
10447;DHT22;70909;45.768;4.884;2023-06-24T03:53:02;20.60;91.70
10447;DHT22;70909;45.768;4.884;2023-06-24T03:55:29;20.50;91.80
10447;DHT22;70909;45.768;4.884;2023-06-24T03:57:56;20.60;91.80
10447;DHT22;70909;45.768;4.884;2023-06-24T04:00:22;20.60;91.70
10447;DHT22;70909;45.768;4.884;2023-06-24T04:02:49;20.60;91.70
10447;DHT22;70909;45.768;4.884;2023-06-24T04:05:19;20.60;92.10
10447;DHT22;70909;45.768;4.884;2023-06-24T04:07:46;20.50;92.10
10447;DHT22;70909;45.768;4.884;2023-06-24T04:10:13;20.50;91.80
10447;DHT22;70909;45.768;4.884;2023-06-24T04:12:40;20.50;91.80
10447;DHT22;70909;45.768;4.884;2023-06-24T04:15:08;20.50;91.70
10447;DHT22;70909;45.768;4.884;2023-06-24T04:17:35;20.50;91.70
10447;DHT22;70909;45.768;4.884;2023-06-24T04:20:02;20.50;91.80
10447;DHT22;70909;45.768;4.884;2023-06-24T04:22:32;20.50;91.80
10447;DHT22;70909;45.768;4.884;2023-06-24T04:24:59;20.40;92.20
10447;DHT22;70909;45.768;4.884;2023-06-24T04:27:26;20.40;91.90
10447;DHT22;70909;45.768;4.884;2023-06-24T04:29:53;20.50;91.90
10447;DHT22;70909;45.768;4.884;2023-06-24T04:32:19;20.50;91.90
10447;DHT22;70909;45.768;4.884;2023-06-24T04:34:46;20.50;91.80
10447;DHT22;70909;45.768;4.884;2023-06-24T04:37:13;20.50;91.70
10447;DHT22;70909;45.768;4.884;2023-06-24T04:39:42;20.60;91.60
10447;DHT22;70909;45.768;4.884;2023-06-24T04:42:09;20.70;91.50
10447;DHT22;70909;45.768;4.884;2023-06-24T04:44:36;20.70;91.40
10447;DHT22;70909;45.768;4.884;2023-06-24T04:47:03;20.60;91.30
10447;DHT22;70909;45.768;4.884;2023-06-24T04:49:30;20.60;91.40
10447;DHT22;70909;45.768;4.884;2023-06-24T04:51:59;20.60;91.50
10447;DHT22;70909;45.768;4.884;2023-06-24T04:54:26;20.60;91.50
10447;DHT22;70909;45.768;4.884;2023-06-24T04:56:54;20.60;91.40
10447;DHT22;70909;45.768;4.884;2023-06-24T04:59:23;20.60;91.40
10447;DHT22;70909;45.768;4.884;2023-06-24T05:01:49;20.60;91.40
10447;DHT22;70909;45.768;4.884;2023-06-24T05:04:16;20.60;91.40
10447;DHT22;70909;45.768;4.884;2023-06-24T05:06:43;20.60;91.40
10447;DHT22;70909;45.768;4.884;2023-06-24T05:09:10;20.50;91.50
10447;DHT22;70909;45.768;4.884;2023-06-24T05:11:39;20.50;91.40
10447;DHT22;70909;45.768;4.884;2023-06-24T05:14:07;20.50;91.50
10447;DHT22;70909;45.768;4.884;2023-06-24T05:16:34;20.50;91.50
10447;DHT22;70909;45.768;4.884;2023-06-24T05:19:01;20.50;91.50
10447;DHT22;70909;45.768;4.884;2023-06-24T05:21:27;20.50;91.60
10447;DHT22;70909;45.768;4.884;2023-06-24T05:23:55;20.50;91.50
10447;DHT22;70909;45.768;4.884;2023-06-24T05:26:21;20.60;91.40
10447;DHT22;70909;45.768;4.884;2023-06-24T05:28:48;20.60;91.30
10447;DHT22;70909;45.768;4.884;2023-06-24T05:31:16;20.60;91.30
10447;DHT22;70909;45.768;4.884;2023-06-24T05:33:43;20.70;91.00
10447;DHT22;70909;45.768;4.884;2023-06-24T05:36:10;20.70;91.00
10447;DHT22;70909;45.768;4.884;2023-06-24T05:38:37;20.70;91.10
10447;DHT22;70909;45.768;4.884;2023-06-24T05:41:04;20.80;91.00
10447;DHT22;70909;45.768;4.884;2023-06-24T05:43:31;20.70;91.10
10447;DHT22;70909;45.768;4.884;2023-06-24T05:45:57;20.80;90.90
10447;DHT22;70909;45.768;4.884;2023-06-24T05:48:25;20.80;90.90
10447;DHT22;70909;45.768;4.884;2023-06-24T05:50:52;20.90;90.90
10447;DHT22;70909;45.768;4.884;2023-06-24T05:53:19;20.80;91.00
10447;DHT22;70909;45.768;4.884;2023-06-24T05:55:46;20.90;91.10
10447;DHT22;70909;45.768;4.884;2023-06-24T05:58:13;21.00;90.90
10447;DHT22;70909;45.768;4.884;2023-06-24T06:00:40;21.10;90.70
10447;DHT22;70909;45.768;4.884;2023-06-24T06:03:07;21.20;90.70
10447;DHT22;70909;45.768;4.884;2023-06-24T06:05:36;21.20;90.70
10447;DHT22;70909;45.768;4.884;2023-06-24T06:08:03;21.30;90.60
10447;DHT22;70909;45.768;4.884;2023-06-24T06:10:30;21.20;90.50
10447;DHT22;70909;45.768;4.884;2023-06-24T06:12:56;21.40;90.90
10447;DHT22;70909;45.768;4.884;2023-06-24T06:15:23;21.60;90.90
10447;DHT22;70909;45.768;4.884;2023-06-24T06:17:51;21.80;90.30
10447;DHT22;70909;45.768;4.884;2023-06-24T06:20:18;22.00;90.00
10447;DHT22;70909;45.768;4.884;2023-06-24T06:22:46;22.10;89.20
10447;DHT22;70909;45.768;4.884;2023-06-24T06:25:13;22.20;89.00
10447;DHT22;70909;45.768;4.884;2023-06-24T06:27:40;22.30;88.30
10447;DHT22;70909;45.768;4.884;2023-06-24T06:30:07;22.30;89.00
10447;DHT22;70909;45.768;4.884;2023-06-24T06:32:34;22.30;88.40
10447;DHT22;70909;45.768;4.884;2023-06-24T06:35:01;22.40;88.10
10447;DHT22;70909;45.768;4.884;2023-06-24T06:37:28;22.40;87.80
10447;DHT22;70909;45.768;4.884;2023-06-24T06:39:56;22.40;87.80
10447;DHT22;70909;45.768;4.884;2023-06-24T06:42:23;22.40;87.90
10447;DHT22;70909;45.768;4.884;2023-06-24T06:44:50;22.40;87.80
10447;DHT22;70909;45.768;4.884;2023-06-24T06:47:16;22.40;87.70
10447;DHT22;70909;45.768;4.884;2023-06-24T06:49:43;22.60;88.00
10447;DHT22;70909;45.768;4.884;2023-06-24T06:52:10;22.70;87.70
10447;DHT22;70909;45.768;4.884;2023-06-24T06:54:37;22.80;87.70
10447;DHT22;70909;45.768;4.884;2023-06-24T06:57:06;22.90;86.80
10447;DHT22;70909;45.768;4.884;2023-06-24T06:59:32;22.90;85.90
10447;DHT22;70909;45.768;4.884;2023-06-24T07:01:59;23.00;85.70
10447;DHT22;70909;45.768;4.884;2023-06-24T07:04:26;23.00;86.60
10447;DHT22;70909;45.768;4.884;2023-06-24T07:06:53;24.70;85.70
10447;DHT22;70909;45.768;4.884;2023-06-24T07:09:19;29.40;77.90
10447;DHT22;70909;45.768;4.884;2023-06-24T07:11:46;32.80;72.70
10447;DHT22;70909;45.768;4.884;2023-06-24T07:14:14;35.40;67.90
10447;DHT22;70909;45.768;4.884;2023-06-24T07:16:41;37.30;59.80
10447;DHT22;70909;45.768;4.884;2023-06-24T07:19:08;38.80;61.30
10447;DHT22;70909;45.768;4.884;2023-06-24T07:21:35;39.70;57.40
10447;DHT22;70909;45.768;4.884;2023-06-24T07:24:02;40.70;55.90
10447;DHT22;70909;45.768;4.884;2023-06-24T07:26:28;40.70;53.30
10447;DHT22;70909;45.768;4.884;2023-06-24T07:28:56;41.30;52.10
10447;DHT22;70909;45.768;4.884;2023-06-24T07:31:25;38.80;53.00
10447;DHT22;70909;45.768;4.884;2023-06-24T07:33:52;35.70;53.70
10447;DHT22;70909;45.768;4.884;2023-06-24T07:36:19;33.30;58.00
10447;DHT22;70909;45.768;4.884;2023-06-24T07:38:46;31.90;60.30
10447;DHT22;70909;45.768;4.884;2023-06-24T07:41:12;30.80;61.00
10447;DHT22;70909;45.768;4.884;2023-06-24T07:43:39;29.80;63.00
10447;DHT22;70909;45.768;4.884;2023-06-24T07:46:06;29.10;64.80
10447;DHT22;70909;45.768;4.884;2023-06-24T07:48:34;28.70;65.90
10447;DHT22;70909;45.768;4.884;2023-06-24T07:51:01;28.30;66.30
10447;DHT22;70909;45.768;4.884;2023-06-24T07:53:28;28.10;66.80
10447;DHT22;70909;45.768;4.884;2023-06-24T07:55:55;27.90;67.30
10447;DHT22;70909;45.768;4.884;2023-06-24T07:58:21;27.80;67.60
10447;DHT22;70909;45.768;4.884;2023-06-24T08:00:48;27.70;67.30
10447;DHT22;70909;45.768;4.884;2023-06-24T08:03:15;27.70;66.20
10447;DHT22;70909;45.768;4.884;2023-06-24T08:05:43;27.50;65.60
10447;DHT22;70909;45.768;4.884;2023-06-24T08:08:10;27.60;66.10
10447;DHT22;70909;45.768;4.884;2023-06-24T08:10:37;27.60;66.70
10447;DHT22;70909;45.768;4.884;2023-06-24T08:13:03;27.70;66.50
10447;DHT22;70909;45.768;4.884;2023-06-24T08:15:30;27.80;65.90
10447;DHT22;70909;45.768;4.884;2023-06-24T08:17:57;27.80;65.70
10447;DHT22;70909;45.768;4.884;2023-06-24T08:20:24;27.80;65.70
10447;DHT22;70909;45.768;4.884;2023-06-24T08:22:52;27.90;66.00
10447;DHT22;70909;45.768;4.884;2023-06-24T08:25:19;28.00;65.90
10447;DHT22;70909;45.768;4.884;2023-06-24T08:27:45;28.00;65.00
10447;DHT22;70909;45.768;4.884;2023-06-24T08:30:13;28.10;64.80
10447;DHT22;70909;45.768;4.884;2023-06-24T08:32:41;28.10;65.20
10447;DHT22;70909;45.768;4.884;2023-06-24T08:35:08;28.20;65.10
10447;DHT22;70909;45.768;4.884;2023-06-24T08:37:36;28.20;64.20
10447;DHT22;70909;45.768;4.884;2023-06-24T08:40:05;28.20;64.50
10447;DHT22;70909;45.768;4.884;2023-06-24T08:42:32;28.20;63.70
10447;DHT22;70909;45.768;4.884;2023-06-24T08:44:59;28.20;64.60
10447;DHT22;70909;45.768;4.884;2023-06-24T08:47:28;28.20;64.80
10447;DHT22;70909;45.768;4.884;2023-06-24T08:50:00;28.30;64.50
10447;DHT22;70909;45.768;4.884;2023-06-24T08:52:30;28.20;64.10
10447;DHT22;70909;45.768;4.884;2023-06-24T08:54:59;28.20;64.40
10447;DHT22;70909;45.768;4.884;2023-06-24T08:57:29;28.30;64.80
10447;DHT22;70909;45.768;4.884;2023-06-24T08:59:55;28.30;64.10
10447;DHT22;70909;45.768;4.884;2023-06-24T09:02:23;28.30;63.90
10447;DHT22;70909;45.768;4.884;2023-06-24T09:04:50;28.30;63.90
10447;DHT22;70909;45.768;4.884;2023-06-24T09:07:25;28.20;62.90
10447;DHT22;70909;45.768;4.884;2023-06-24T09:09:53;28.30;62.80
10447;DHT22;70909;45.768;4.884;2023-06-24T09:12:20;28.40;62.70
10447;DHT22;70909;45.768;4.884;2023-06-24T09:14:49;28.40;63.20
10447;DHT22;70909;45.768;4.884;2023-06-24T09:17:17;28.50;63.50
10447;DHT22;70909;45.768;4.884;2023-06-24T09:19:44;28.40;63.50
10447;DHT22;70909;45.768;4.884;2023-06-24T09:22:10;28.40;63.10
10447;DHT22;70909;45.768;4.884;2023-06-24T09:24:43;28.40;62.90
10447;DHT22;70909;45.768;4.884;2023-06-24T09:27:12;28.60;62.00
10447;DHT22;70909;45.768;4.884;2023-06-24T09:29:40;28.60;62.50
10447;DHT22;70909;45.768;4.884;2023-06-24T09:32:09;28.60;62.20
10447;DHT22;70909;45.768;4.884;2023-06-24T09:34:37;28.60;62.80
10447;DHT22;70909;45.768;4.884;2023-06-24T09:37:04;28.50;62.30
10447;DHT22;70909;45.768;4.884;2023-06-24T09:39:35;28.50;62.30
10447;DHT22;70909;45.768;4.884;2023-06-24T09:42:04;28.60;62.80
10447;DHT22;70909;45.768;4.884;2023-06-24T09:44:32;28.80;62.60
10447;DHT22;70909;45.768;4.884;2023-06-24T09:46:59;28.80;62.80
10447;DHT22;70909;45.768;4.884;2023-06-24T09:49:28;28.90;61.70
10447;DHT22;70909;45.768;4.884;2023-06-24T09:51:57;29.00;61.20
10447;DHT22;70909;45.768;4.884;2023-06-24T09:54:26;29.10;61.00
10447;DHT22;70909;45.768;4.884;2023-06-24T09:56:54;29.20;61.30
10447;DHT22;70909;45.768;4.884;2023-06-24T09:59:23;29.30;61.10
10447;DHT22;70909;45.768;4.884;2023-06-24T10:01:53;29.30;60.00
10447;DHT22;70909;45.768;4.884;2023-06-24T10:04:20;29.40;60.40
10447;DHT22;70909;45.768;4.884;2023-06-24T10:06:49;29.40;59.50
10447;DHT22;70909;45.768;4.884;2023-06-24T10:09:17;29.40;59.70
10447;DHT22;70909;45.768;4.884;2023-06-24T10:11:45;29.40;59.20
10447;DHT22;70909;45.768;4.884;2023-06-24T10:14:12;29.40;58.50
10447;DHT22;70909;45.768;4.884;2023-06-24T10:16:40;29.40;59.10
10447;DHT22;70909;45.768;4.884;2023-06-24T10:19:07;29.50;59.20
10447;DHT22;70909;45.768;4.884;2023-06-24T10:21:50;29.50;59.40
10447;DHT22;70909;45.768;4.884;2023-06-24T10:24:30;29.50;59.00
10447;DHT22;70909;45.768;4.884;2023-06-24T10:27:02;29.50;59.70
10447;DHT22;70909;45.768;4.884;2023-06-24T10:29:33;29.50;59.60
10447;DHT22;70909;45.768;4.884;2023-06-24T10:32:03;29.50;59.40
10447;DHT22;70909;45.768;4.884;2023-06-24T10:34:38;29.60;59.00
10447;DHT22;70909;45.768;4.884;2023-06-24T10:37:09;29.50;58.50
10447;DHT22;70909;45.768;4.884;2023-06-24T10:39:51;29.70;58.70
10447;DHT22;70909;45.768;4.884;2023-06-24T10:42:38;29.70;58.50
10447;DHT22;70909;45.768;4.884;2023-06-24T10:45:18;29.70;58.40
10447;DHT22;70909;45.768;4.884;2023-06-24T10:47:46;29.70;58.40
10447;DHT22;70909;45.768;4.884;2023-06-24T10:50:14;29.70;58.40
10447;DHT22;70909;45.768;4.884;2023-06-24T10:52:43;29.70;58.40
10447;DHT22;70909;45.768;4.884;2023-06-24T10:55:13;29.70;57.90
10447;DHT22;70909;45.768;4.884;2023-06-24T10:57:40;29.70;57.80
10447;DHT22;70909;45.768;4.884;2023-06-24T11:00:08;29.80;58.50
10447;DHT22;70909;45.768;4.884;2023-06-24T11:02:35;29.80;57.70
10447;DHT22;70909;45.768;4.884;2023-06-24T11:05:04;29.80;58.00
10447;DHT22;70909;45.768;4.884;2023-06-24T11:07:32;29.80;58.50
10447;DHT22;70909;45.768;4.884;2023-06-24T11:10:02;29.80;58.30
10447;DHT22;70909;45.768;4.884;2023-06-24T11:12:32;30.00;57.80
10447;DHT22;70909;45.768;4.884;2023-06-24T11:15:00;30.00;57.70
10447;DHT22;70909;45.768;4.884;2023-06-24T11:17:27;30.00;57.30
10447;DHT22;70909;45.768;4.884;2023-06-24T11:19:55;30.10;57.50
10447;DHT22;70909;45.768;4.884;2023-06-24T11:22:22;30.10;57.70
10447;DHT22;70909;45.768;4.884;2023-06-24T11:24:49;30.00;56.20
10447;DHT22;70909;45.768;4.884;2023-06-24T11:27:23;30.00;55.90
10447;DHT22;70909;45.768;4.884;2023-06-24T11:29:51;30.00;56.80
10447;DHT22;70909;45.768;4.884;2023-06-24T11:32:18;30.00;57.00
10447;DHT22;70909;45.768;4.884;2023-06-24T11:34:46;30.00;57.20
10447;DHT22;70909;45.768;4.884;2023-06-24T11:37:14;30.00;57.50
10447;DHT22;70909;45.768;4.884;2023-06-24T11:39:42;29.90;57.00
10447;DHT22;70909;45.768;4.884;2023-06-24T11:42:10;29.80;57.10
10447;DHT22;70909;45.768;4.884;2023-06-24T11:44:41;29.80;57.50
10447;DHT22;70909;45.768;4.884;2023-06-24T11:47:11;29.70;57.20
10447;DHT22;70909;45.768;4.884;2023-06-24T11:49:48;29.70;56.70
10447;DHT22;70909;45.768;4.884;2023-06-24T11:52:15;29.70;57.00
10447;DHT22;70909;45.768;4.884;2023-06-24T11:54:42;29.70;56.70
10447;DHT22;70909;45.768;4.884;2023-06-24T11:57:09;29.70;56.30
10447;DHT22;70909;45.768;4.884;2023-06-24T11:59:38;29.70;56.80
10447;DHT22;70909;45.768;4.884;2023-06-24T12:02:05;29.80;56.60
10447;DHT22;70909;45.768;4.884;2023-06-24T12:04:33;29.80;57.00
10447;DHT22;70909;45.768;4.884;2023-06-24T12:07:02;29.80;57.00
10447;DHT22;70909;45.768;4.884;2023-06-24T12:09:30;29.70;56.90
10447;DHT22;70909;45.768;4.884;2023-06-24T12:11:56;29.60;56.70
10447;DHT22;70909;45.768;4.884;2023-06-24T12:14:23;29.50;57.00
10447;DHT22;70909;45.768;4.884;2023-06-24T12:16:50;29.50;57.30
10447;DHT22;70909;45.768;4.884;2023-06-24T12:19:17;29.60;56.30
10447;DHT22;70909;45.768;4.884;2023-06-24T12:21:47;29.50;56.80
10447;DHT22;70909;45.768;4.884;2023-06-24T12:24:14;29.60;57.70
10447;DHT22;70909;45.768;4.884;2023-06-24T12:26:40;29.60;57.60
10447;DHT22;70909;45.768;4.884;2023-06-24T12:29:07;29.70;57.50
10447;DHT22;70909;45.768;4.884;2023-06-24T12:31:34;29.60;57.30
10447;DHT22;70909;45.768;4.884;2023-06-24T12:34:01;29.70;57.20
10447;DHT22;70909;45.768;4.884;2023-06-24T12:36:27;29.70;57.30
10447;DHT22;70909;45.768;4.884;2023-06-24T12:38:55;29.70;56.40
10447;DHT22;70909;45.768;4.884;2023-06-24T12:41:22;29.70;56.90
10447;DHT22;70909;45.768;4.884;2023-06-24T12:43:49;29.60;56.50
10447;DHT22;70909;45.768;4.884;2023-06-24T12:46:16;29.50;56.80
10447;DHT22;70909;45.768;4.884;2023-06-24T12:48:42;29.50;56.70
10447;DHT22;70909;45.768;4.884;2023-06-24T12:51:10;29.50;57.00
10447;DHT22;70909;45.768;4.884;2023-06-24T12:53:37;29.50;57.60
10447;DHT22;70909;45.768;4.884;2023-06-24T12:56:05;29.50;57.70
10447;DHT22;70909;45.768;4.884;2023-06-24T12:58:32;29.50;57.40
10447;DHT22;70909;45.768;4.884;2023-06-24T13:00:58;29.50;57.70
10447;DHT22;70909;45.768;4.884;2023-06-24T13:03:25;29.50;57.70
10447;DHT22;70909;45.768;4.884;2023-06-24T13:05:52;29.50;57.50
10447;DHT22;70909;45.768;4.884;2023-06-24T13:08:19;29.50;57.50
10447;DHT22;70909;45.768;4.884;2023-06-24T13:10:45;29.50;57.80
10447;DHT22;70909;45.768;4.884;2023-06-24T13:13:14;29.50;58.00
10447;DHT22;70909;45.768;4.884;2023-06-24T13:15:40;29.60;58.00
10447;DHT22;70909;45.768;4.884;2023-06-24T13:18:07;29.60;57.90
10447;DHT22;70909;45.768;4.884;2023-06-24T13:20:34;29.60;57.80
10447;DHT22;70909;45.768;4.884;2023-06-24T13:23:01;29.60;57.40
10447;DHT22;70909;45.768;4.884;2023-06-24T13:25:27;29.60;57.40
10447;DHT22;70909;45.768;4.884;2023-06-24T13:27:54;29.60;57.40
10447;DHT22;70909;45.768;4.884;2023-06-24T13:30:22;29.60;57.40
10447;DHT22;70909;45.768;4.884;2023-06-24T13:32:49;29.60;56.00
10447;DHT22;70909;45.768;4.884;2023-06-24T13:35:16;29.60;56.60
10447;DHT22;70909;45.768;4.884;2023-06-24T13:37:43;29.50;56.90
10447;DHT22;70909;45.768;4.884;2023-06-24T13:40:10;29.60;56.90
10447;DHT22;70909;45.768;4.884;2023-06-24T13:42:37;29.70;57.00
10447;DHT22;70909;45.768;4.884;2023-06-24T13:45:05;29.70;56.30
10447;DHT22;70909;45.768;4.884;2023-06-24T13:47:33;29.70;57.00
10447;DHT22;70909;45.768;4.884;2023-06-24T13:50:00;29.70;57.60
10447;DHT22;70909;45.768;4.884;2023-06-24T13:52:27;29.70;57.40
10447;DHT22;70909;45.768;4.884;2023-06-24T13:54:53;29.80;57.70
10447;DHT22;70909;45.768;4.884;2023-06-24T13:57:20;29.80;57.70
10447;DHT22;70909;45.768;4.884;2023-06-24T13:59:47;29.80;57.40
10447;DHT22;70909;45.768;4.884;2023-06-24T14:02:14;29.80;57.20
10447;DHT22;70909;45.768;4.884;2023-06-24T14:04:42;29.80;57.40
10447;DHT22;70909;45.768;4.884;2023-06-24T14:07:09;29.80;57.50
10447;DHT22;70909;45.768;4.884;2023-06-24T14:09:37;29.80;57.60
10447;DHT22;70909;45.768;4.884;2023-06-24T14:12:04;29.80;57.40
10447;DHT22;70909;45.768;4.884;2023-06-24T14:14:31;29.80;57.20
10447;DHT22;70909;45.768;4.884;2023-06-24T14:16:58;29.80;57.30
10447;DHT22;70909;45.768;4.884;2023-06-24T14:19:25;29.80;57.30
10447;DHT22;70909;45.768;4.884;2023-06-24T14:21:53;29.80;57.50
10447;DHT22;70909;45.768;4.884;2023-06-24T14:24:20;29.80;57.90
10447;DHT22;70909;45.768;4.884;2023-06-24T14:26:46;29.80;58.20
10447;DHT22;70909;45.768;4.884;2023-06-24T14:29:15;29.80;58.30
10447;DHT22;70909;45.768;4.884;2023-06-24T14:31:42;29.90;58.50
10447;DHT22;70909;45.768;4.884;2023-06-24T14:34:09;29.90;58.60
10447;DHT22;70909;45.768;4.884;2023-06-24T14:36:35;30.00;58.40
10447;DHT22;70909;45.768;4.884;2023-06-24T14:39:04;30.00;58.50
10447;DHT22;70909;45.768;4.884;2023-06-24T14:41:31;30.00;58.50
10447;DHT22;70909;45.768;4.884;2023-06-24T14:43:57;30.00;58.70
10447;DHT22;70909;45.768;4.884;2023-06-24T14:46:24;30.10;58.70
10447;DHT22;70909;45.768;4.884;2023-06-24T14:48:51;30.10;58.60
10447;DHT22;70909;45.768;4.884;2023-06-24T14:51:18;30.10;58.60
10447;DHT22;70909;45.768;4.884;2023-06-24T14:53:45;30.10;58.50
10447;DHT22;70909;45.768;4.884;2023-06-24T14:56:13;30.10;58.20
10447;DHT22;70909;45.768;4.884;2023-06-24T14:58:39;30.10;58.10
10447;DHT22;70909;45.768;4.884;2023-06-24T15:01:06;30.10;58.10
10447;DHT22;70909;45.768;4.884;2023-06-24T15:03:33;30.10;57.50
10447;DHT22;70909;45.768;4.884;2023-06-24T15:06:00;30.10;57.70
10447;DHT22;70909;45.768;4.884;2023-06-24T15:08:26;30.10;57.40
10447;DHT22;70909;45.768;4.884;2023-06-24T15:10:53;30.00;57.60
10447;DHT22;70909;45.768;4.884;2023-06-24T15:13:21;30.10;57.90
10447;DHT22;70909;45.768;4.884;2023-06-24T15:15:48;30.00;57.80
10447;DHT22;70909;45.768;4.884;2023-06-24T15:18:17;30.10;58.00
10447;DHT22;70909;45.768;4.884;2023-06-24T15:20:44;30.10;58.10
10447;DHT22;70909;45.768;4.884;2023-06-24T15:23:11;30.00;58.20
10447;DHT22;70909;45.768;4.884;2023-06-24T15:25:37;30.00;58.20
10447;DHT22;70909;45.768;4.884;2023-06-24T15:28:04;30.10;58.40
10447;DHT22;70909;45.768;4.884;2023-06-24T15:30:32;30.00;58.70
10447;DHT22;70909;45.768;4.884;2023-06-24T15:32:59;30.10;58.70
10447;DHT22;70909;45.768;4.884;2023-06-24T15:35:26;30.10;58.20